createdAt,value
2018-08-18T00:00:16.001Z,27.23
2018-08-18T00:02:44.526Z,31.30
2018-08-18T00:05:14.231Z,29.03
2018-08-18T00:07:43.041Z,29.67
2018-08-18T00:10:15.178Z,29.40
2018-08-18T00:12:43.700Z,33.10
2018-08-18T00:15:12.169Z,32.77
2018-08-18T00:17:40.539Z,32.47
2018-08-18T00:20:18.097Z,33.67
2018-08-18T00:22:46.508Z,28.13
2018-08-18T00:25:14.915Z,28.13
2018-08-18T00:27:43.300Z,29.80
2018-08-18T00:30:17.281Z,31.70
2018-08-18T00:32:45.666Z,28.63
2018-08-18T00:35:14.118Z,32.80
2018-08-18T00:37:42.533Z,33.13
2018-08-18T00:40:11.533Z,32.67
2018-08-18T00:42:40.189Z,36.10
2018-08-18T00:45:10.873Z,38.20
2018-08-18T00:47:39.561Z,36.47
2018-08-18T00:50:08.908Z,31.87
2018-08-18T00:52:37.511Z,36.57
2018-08-18T00:55:05.967Z,43.30
2018-08-18T00:57:34.313Z,40.00
2018-08-18T01:00:02.872Z,38.60
2018-08-18T01:02:31.276Z,33.40
2018-08-18T01:05:00.836Z,38.60
2018-08-18T01:07:30.384Z,40.13
2018-08-18T01:09:59.156Z,35.60
2018-08-18T01:12:28.129Z,36.40
2018-08-18T01:14:56.848Z,37.60
2018-08-18T01:17:25.362Z,37.87
2018-08-18T01:19:55.481Z,33.60
2018-08-18T01:22:23.866Z,33.07
2018-08-18T01:24:52.782Z,35.37
2018-08-18T01:27:21.379Z,38.83
2018-08-18T01:29:56.085Z,35.10
2018-08-18T01:32:24.721Z,38.10
2018-08-18T01:34:53.767Z,29.37
2018-08-18T01:37:22.110Z,32.90
2018-08-18T01:39:52.944Z,36.70
2018-08-18T01:42:21.466Z,38.77
2018-08-18T01:44:52.756Z,37.97
2018-08-18T01:47:21.345Z,31.77
2018-08-18T01:49:49.718Z,30.17
2018-08-18T01:52:20.080Z,36.20
2018-08-18T01:54:48.497Z,42.13
2018-08-18T01:57:19.988Z,35.57
2018-08-18T01:59:48.622Z,32.80
2018-08-18T02:02:20.550Z,32.37
2018-08-18T02:04:49.451Z,32.73
2018-08-18T02:07:25.071Z,38.97
2018-08-18T02:09:53.975Z,34.37
2018-08-18T02:12:22.709Z,37.30
2018-08-18T02:14:51.190Z,40.07
2018-08-18T02:17:35.986Z,35.37
2018-08-18T02:20:06.842Z,39.67
2018-08-18T02:22:35.153Z,40.03
2018-08-18T02:25:03.985Z,40.00
2018-08-18T02:27:32.341Z,33.43
2018-08-18T02:30:22.732Z,34.27
2018-08-18T02:32:51.085Z,36.50
2018-08-18T02:35:20.729Z,39.43
2018-08-18T02:37:49.165Z,39.33
2018-08-18T02:40:18.095Z,40.73
2018-08-18T02:42:46.496Z,36.67
2018-08-18T02:45:15.516Z,33.80
2018-08-18T02:47:43.825Z,37.00
2018-08-18T02:50:13.378Z,34.50
2018-08-18T02:52:41.703Z,38.23
2018-08-18T02:55:13.044Z,38.60
2018-08-18T02:57:44.021Z,43.03
2018-08-18T03:00:23.420Z,49.00
2018-08-18T03:02:51.807Z,41.17
2018-08-18T03:05:20.183Z,36.30
2018-08-18T03:07:49.427Z,39.97
2018-08-18T03:10:23.215Z,43.20
2018-08-18T03:16:14.173Z,41.93
2018-08-18T03:18:49.881Z,42.70
2018-08-18T03:21:24.892Z,41.87
2018-08-18T03:24:07.639Z,41.40
2018-08-18T03:26:39.517Z,44.23
2018-08-18T03:29:08.140Z,36.33
2018-08-18T03:31:37.625Z,35.77
2018-08-18T03:34:06.373Z,41.60
2018-08-18T03:36:39.109Z,37.47
2018-08-18T03:39:17.050Z,39.03
2018-08-18T03:41:45.768Z,39.97
2018-08-18T03:44:14.144Z,40.40
2018-08-18T03:46:42.514Z,43.00
2018-08-18T03:49:10.857Z,42.47
2018-08-18T03:51:46.065Z,37.67
2018-08-18T03:54:17.445Z,40.30
2018-08-18T03:56:47.033Z,42.70
2018-08-18T03:59:15.490Z,38.50
2018-08-18T04:01:51.255Z,39.67
2018-08-18T04:04:20.810Z,45.87
2018-08-18T04:06:50.440Z,44.67
2018-08-18T04:09:22.996Z,42.23
2018-08-18T04:11:51.766Z,38.17
2018-08-18T04:14:27.194Z,37.00
2018-08-18T04:16:56.414Z,41.77
2018-08-18T04:19:24.818Z,34.83
2018-08-18T04:21:54.074Z,40.13
2018-08-18T04:24:27.438Z,46.17
2018-08-18T04:26:55.780Z,42.27
2018-08-18T04:29:24.081Z,39.30
2018-08-18T04:31:52.466Z,47.30
2018-08-18T04:34:20.781Z,43.10
2018-08-18T04:36:49.114Z,41.37
2018-08-18T04:39:17.395Z,46.80
2018-08-18T04:41:45.722Z,41.17
2018-08-18T04:44:14.045Z,48.77
2018-08-18T04:46:42.368Z,34.70
2018-08-18T04:49:10.702Z,36.10
2018-08-18T04:51:39.083Z,37.77
2018-08-18T04:54:08.084Z,35.50
2018-08-18T04:56:36.433Z,41.03
2018-08-18T04:59:04.929Z,38.70
2018-08-18T05:01:33.480Z,34.50
2018-08-18T05:04:06.729Z,41.57
2018-08-18T05:06:36.886Z,42.07
2018-08-18T05:09:09.184Z,43.87
2018-08-18T05:11:37.721Z,39.30
2018-08-18T05:14:06.590Z,40.87
2018-08-18T05:16:35.102Z,39.47
2018-08-18T05:19:03.491Z,39.40
2018-08-18T05:21:31.846Z,37.97
2018-08-18T05:24:20.594Z,36.80
2018-08-18T05:26:49.606Z,36.67
2018-08-18T05:29:17.928Z,42.93
2018-08-18T05:31:46.695Z,40.07
2018-08-18T05:34:15.161Z,30.50
2018-08-18T05:36:44.315Z,31.57
2018-08-18T05:39:12.735Z,37.70
2018-08-18T05:41:41.129Z,39.47
2018-08-18T05:44:09.543Z,33.90
2018-08-18T05:46:37.867Z,36.07
2018-08-18T05:49:13.391Z,36.10
2018-08-18T05:51:44.373Z,32.60
2018-08-18T05:54:15.042Z,29.47
2018-08-18T05:56:44.639Z,33.30
2018-08-18T05:59:12.991Z,40.33
2018-08-18T06:01:41.779Z,34.90
2018-08-18T06:04:12.131Z,34.80
2018-08-18T06:06:41.502Z,39.83
2018-08-18T06:09:11.418Z,37.97
2018-08-18T06:11:39.998Z,32.13
2018-08-18T06:14:09.427Z,36.60
2018-08-18T06:16:37.991Z,37.73
2018-08-18T06:19:06.561Z,37.90
2018-08-18T06:21:35.053Z,39.90
2018-08-18T06:24:03.503Z,36.10
2018-08-18T06:26:31.952Z,31.40
2018-08-18T06:29:00.328Z,38.27
2018-08-18T06:31:28.685Z,35.90
2018-08-18T06:33:57.062Z,38.80
2018-08-18T06:36:25.612Z,39.30
2018-08-18T06:38:53.996Z,41.03
2018-08-18T06:41:22.454Z,34.40
2018-08-18T06:43:50.786Z,38.50
2018-08-18T06:46:19.168Z,50.93
2018-08-18T06:48:47.486Z,42.30
2018-08-18T06:51:15.928Z,39.80
2018-08-18T06:53:48.491Z,35.67
2018-08-18T06:56:16.909Z,31.20
2018-08-18T06:58:45.533Z,34.13
2018-08-18T07:01:14.045Z,39.53
2018-08-18T07:03:45.017Z,34.03
2018-08-18T07:06:14.797Z,33.10
2018-08-18T07:08:48.854Z,36.90
2018-08-18T07:11:17.260Z,46.57
2018-08-18T07:13:46.791Z,32.90
2018-08-18T07:16:15.382Z,31.73
2018-08-18T07:18:43.786Z,37.60
2018-08-18T07:21:12.428Z,39.33
2018-08-18T07:23:41.122Z,36.57
2018-08-18T07:26:10.645Z,42.27
2018-08-18T07:28:39.212Z,33.17
2018-08-18T07:31:07.709Z,31.63
2018-08-18T07:33:36.276Z,29.57
2018-08-18T07:36:04.871Z,36.73
2018-08-18T07:38:41.759Z,34.73
2018-08-18T07:41:10.232Z,35.67
2018-08-18T07:43:40.232Z,31.50
2018-08-18T07:46:08.713Z,37.20
2018-08-18T07:48:38.222Z,39.90
2018-08-18T07:51:06.709Z,34.20
2018-08-18T07:53:35.196Z,36.57
2018-08-18T07:56:03.597Z,34.40
2018-08-18T07:58:38.734Z,29.10
2018-08-18T08:01:07.505Z,32.90
2018-08-18T08:03:36.094Z,43.13
2018-08-18T08:06:04.490Z,34.30
2018-08-18T08:08:38.546Z,39.00
2018-08-18T08:11:11.487Z,35.80
2018-08-18T08:13:39.950Z,39.60
2018-08-18T08:16:08.748Z,37.97
2018-08-18T08:18:38.482Z,42.03
2018-08-18T08:21:07.126Z,36.97
2018-08-18T08:23:35.781Z,37.90
2018-08-18T08:26:11.160Z,33.50
2018-08-18T08:28:50.294Z,36.33
2018-08-18T08:31:18.986Z,32.10
2018-08-18T08:33:51.399Z,35.63
2018-08-18T08:36:33.556Z,32.83
2018-08-18T08:39:05.426Z,30.13
2018-08-18T08:41:46.182Z,29.87
2018-08-18T08:44:14.825Z,31.33
2018-08-18T08:46:59.916Z,31.03
2018-08-18T08:49:28.409Z,35.33
2018-08-18T08:51:56.910Z,39.00
2018-08-18T08:54:30.998Z,35.13
2018-08-18T08:57:03.339Z,28.53
2018-08-18T08:59:33.130Z,31.37
2018-08-18T09:02:03.605Z,28.80
2018-08-18T09:04:33.553Z,34.90
2018-08-18T09:07:04.003Z,32.40
2018-08-18T09:09:32.565Z,30.60
2018-08-18T09:12:01.751Z,32.07
2018-08-18T09:14:31.642Z,25.80
2018-08-18T09:17:00.226Z,36.73
2018-08-18T09:19:28.942Z,33.10
2018-08-18T09:22:01.076Z,30.40
2018-08-18T09:24:30.670Z,38.33
2018-08-18T09:27:02.292Z,30.90
2018-08-18T09:29:48.508Z,40.67
2018-08-18T09:32:18.099Z,32.90
2018-08-18T09:34:53.256Z,35.10
2018-08-18T09:37:22.270Z,32.10
2018-08-18T09:39:50.644Z,32.87
2018-08-18T09:42:19.762Z,29.20
2018-08-18T09:44:49.601Z,30.40
2018-08-18T09:47:18.013Z,26.47
2018-08-18T09:49:46.433Z,25.93
2018-08-18T09:52:18.903Z,26.17
2018-08-18T09:54:47.368Z,32.77
2018-08-18T09:57:15.822Z,24.33
2018-08-18T09:59:44.189Z,31.63
2018-08-18T10:02:13.486Z,27.87
2018-08-18T10:04:41.901Z,28.97
2018-08-18T10:07:10.469Z,26.30
2018-08-18T10:09:38.829Z,23.50
2018-08-18T10:12:07.325Z,25.20
2018-08-18T10:14:35.724Z,26.20
2018-08-18T10:17:04.121Z,25.57
2018-08-18T10:19:33.394Z,25.00
2018-08-18T10:22:01.799Z,29.37
2018-08-18T10:24:30.230Z,28.13
2018-08-18T10:27:05.631Z,24.63
2018-08-18T10:29:34.000Z,27.27
2018-08-18T10:32:02.450Z,25.30
2018-08-18T10:34:32.010Z,19.67
2018-08-18T10:37:01.869Z,23.20
2018-08-18T10:39:30.282Z,21.57
2018-08-18T10:42:14.767Z,19.80
2018-08-18T10:44:50.058Z,19.23
2018-08-18T10:47:19.841Z,25.23
2018-08-18T10:50:05.102Z,18.67
2018-08-18T10:52:50.276Z,19.20
2018-08-18T10:55:20.052Z,23.07
2018-08-18T10:57:59.513Z,18.50
2018-08-18T11:00:31.642Z,19.30
2018-08-18T11:03:04.303Z,17.00
2018-08-18T11:05:32.946Z,20.07
2018-08-18T11:08:05.369Z,21.20
2018-08-18T11:10:36.601Z,20.50
2018-08-18T11:13:05.244Z,21.20
2018-08-18T11:15:33.690Z,25.53
2018-08-18T11:18:02.182Z,21.20
2018-08-18T11:20:31.877Z,20.10
2018-08-18T11:23:06.379Z,17.30
2018-08-18T11:25:41.365Z,19.73
2018-08-18T11:28:17.426Z,17.80
2018-08-18T11:30:45.896Z,17.93
2018-08-18T11:33:34.744Z,18.93
2018-08-18T11:36:04.189Z,16.57
2018-08-18T11:38:33.474Z,16.70
2018-08-18T11:41:01.868Z,21.13
2018-08-18T11:43:33.997Z,17.20
2018-08-18T11:46:02.383Z,16.63
2018-08-18T11:48:31.202Z,16.30
2018-08-18T11:50:59.608Z,18.97
2018-08-18T11:53:27.969Z,19.60
2018-08-18T11:55:56.341Z,15.97
2018-08-18T11:58:24.820Z,15.47
2018-08-18T12:00:55.541Z,13.77
2018-08-18T12:03:27.182Z,13.60
2018-08-18T12:05:56.709Z,14.50
2018-08-18T12:08:27.093Z,18.23
2018-08-18T12:10:57.081Z,15.07
2018-08-18T12:13:31.401Z,17.57
2018-08-18T12:16:06.301Z,13.57
2018-08-18T12:18:35.076Z,17.07
2018-08-18T12:21:04.287Z,14.13
2018-08-18T12:23:35.252Z,15.00
2018-08-18T12:26:07.039Z,21.60
2018-08-18T12:28:49.457Z,15.63
2018-08-18T12:31:20.177Z,13.87
2018-08-18T12:33:48.790Z,15.17
2018-08-18T12:36:17.362Z,13.53
2018-08-18T12:38:49.359Z,15.83
2018-08-18T12:41:17.740Z,10.20
2018-08-18T12:43:50.293Z,14.43
2018-08-18T12:46:20.801Z,14.10
2018-08-18T12:48:50.617Z,12.10
2018-08-18T12:51:19.663Z,10.73
2018-08-18T12:53:56.649Z,15.77
2018-08-18T12:56:27.196Z,11.57
2018-08-18T12:58:55.798Z,13.70
2018-08-18T13:01:45.505Z,14.30
2018-08-18T13:04:18.701Z,14.90
2018-08-18T13:06:49.132Z,12.77
2018-08-18T13:09:19.220Z,11.53
2018-08-18T13:11:49.584Z,11.93
2018-08-18T13:14:21.278Z,11.90
2018-08-18T13:16:49.618Z,16.10
2018-08-18T13:19:20.151Z,12.30
2018-08-18T13:21:48.545Z,12.37
2018-08-18T13:24:17.044Z,13.23
2018-08-18T13:26:45.430Z,11.30
2018-08-18T13:29:13.933Z,11.10
2018-08-18T13:31:43.209Z,11.30
2018-08-18T13:34:13.125Z,13.70
2018-08-18T13:36:42.633Z,11.47
2018-08-18T13:39:15.280Z,12.30
2018-08-18T13:41:44.675Z,9.00
2018-08-18T13:44:30.510Z,12.00
2018-08-18T13:46:59.000Z,14.80
2018-08-18T13:49:27.644Z,11.83
2018-08-18T13:51:56.409Z,12.33
2018-08-18T13:54:24.791Z,11.40
2018-08-18T13:56:53.189Z,10.40
2018-08-18T13:59:38.791Z,10.30
2018-08-18T14:02:08.150Z,10.27
2018-08-18T14:04:39.216Z,11.13
2018-08-18T14:07:08.166Z,12.20
2018-08-18T14:09:36.505Z,11.30
2018-08-18T14:12:10.462Z,10.37
2018-08-18T14:14:38.882Z,10.67
2018-08-18T14:17:07.604Z,11.47
2018-08-18T14:19:35.970Z,10.13
2018-08-18T14:22:07.848Z,11.00
2018-08-18T14:24:37.390Z,24.43
2018-08-18T14:27:13.163Z,15.03
2018-08-18T14:29:41.645Z,11.83
2018-08-18T14:32:17.986Z,8.90
2018-08-18T14:34:56.074Z,11.30
2018-08-18T14:37:24.452Z,10.63
2018-08-18T14:39:52.893Z,12.97
2018-08-18T14:42:21.323Z,16.30
2018-08-18T14:44:49.805Z,9.00
2018-08-18T14:47:18.177Z,9.90
2018-08-18T14:49:46.588Z,8.90
2018-08-18T14:52:15.022Z,11.57
2018-08-18T14:54:43.352Z,8.40
2018-08-18T14:57:11.718Z,9.87
2018-08-18T14:59:40.137Z,11.63
2018-08-18T15:02:08.508Z,7.43
2018-08-18T15:04:36.923Z,7.87
2018-08-18T15:07:05.463Z,9.10
2018-08-18T15:09:42.256Z,6.93
2018-08-18T15:12:10.650Z,10.07
2018-08-18T15:14:39.084Z,7.80
2018-08-18T15:17:08.179Z,7.57
2018-08-18T15:19:36.584Z,8.40
2018-08-18T15:22:09.381Z,9.23
2018-08-18T15:24:38.062Z,10.90
2018-08-18T15:27:06.710Z,8.40
2018-08-18T15:29:35.231Z,9.60
2018-08-18T15:32:03.821Z,15.80
2018-08-18T15:34:32.145Z,9.93
2018-08-18T15:37:00.724Z,13.87
2018-08-18T15:39:29.378Z,10.67
2018-08-18T15:41:59.243Z,11.43
2018-08-18T15:44:27.569Z,12.23
2018-08-18T15:46:56.340Z,9.97
2018-08-18T15:49:24.743Z,8.87
2018-08-18T15:51:53.519Z,8.47
2018-08-18T15:54:24.116Z,8.70
2018-08-18T15:56:52.633Z,9.83
2018-08-18T15:59:21.070Z,11.07
2018-08-18T16:01:49.499Z,13.00
2018-08-18T16:04:17.907Z,7.80
2018-08-18T16:06:46.623Z,8.80
2018-08-18T16:09:15.020Z,8.50
2018-08-18T16:11:43.416Z,10.10
2018-08-18T16:14:11.822Z,10.73
2018-08-18T16:17:00.324Z,9.50
2018-08-18T16:19:34.023Z,8.80
2018-08-18T16:22:03.146Z,11.80
2018-08-18T16:24:44.282Z,13.90
2018-08-18T16:27:13.100Z,11.90
2018-08-18T16:29:41.744Z,9.50
2018-08-18T16:32:27.470Z,13.23
2018-08-18T16:35:01.794Z,9.20
2018-08-18T16:37:30.831Z,8.20
2018-08-18T16:39:59.355Z,11.37
2018-08-18T16:42:27.893Z,9.87
2018-08-18T16:44:56.241Z,12.80
2018-08-18T16:47:24.624Z,9.87
2018-08-18T16:49:53.033Z,9.33
2018-08-18T16:52:21.368Z,11.40
2018-08-18T16:54:49.691Z,12.87
2018-08-18T16:57:18.048Z,7.87
2018-08-18T16:59:46.418Z,9.20
2018-08-18T17:02:33.402Z,9.67
2018-08-18T17:05:01.787Z,9.47
2018-08-18T17:07:30.224Z,10.57
2018-08-18T17:09:58.537Z,10.53
2018-08-18T17:12:29.130Z,15.70
2018-08-18T17:14:57.493Z,13.93
2018-08-18T17:17:26.300Z,11.30
2018-08-18T17:19:54.666Z,14.53
2018-08-18T17:22:23.044Z,14.03
2018-08-18T17:24:51.432Z,11.90
2018-08-18T17:27:19.780Z,10.47
2018-08-18T17:29:49.746Z,11.67
2018-08-18T17:32:18.210Z,11.07
2018-08-18T17:34:46.581Z,12.17
2018-08-18T17:37:14.995Z,15.80
2018-08-18T17:39:43.390Z,14.37
2018-08-18T17:42:18.488Z,13.90
2018-08-18T17:44:46.974Z,13.17
2018-08-18T17:47:15.417Z,22.17
2018-08-18T17:49:49.306Z,15.17
2018-08-18T17:52:17.641Z,12.97
2018-08-18T17:55:18.732Z,15.30
2018-08-18T17:57:47.081Z,17.33
2018-08-18T18:00:18.655Z,13.73
2018-08-18T18:02:53.450Z,16.17
2018-08-18T18:05:26.744Z,14.17
2018-08-18T18:08:00.701Z,15.17
2018-08-18T18:10:35.959Z,13.63
2018-08-18T18:13:15.902Z,14.30
2018-08-18T18:15:45.707Z,12.00
2018-08-18T18:18:16.679Z,18.50
2018-08-18T18:20:47.393Z,14.27
2018-08-18T18:23:16.297Z,33.73
2018-08-18T18:25:44.809Z,13.50
2018-08-18T18:28:13.208Z,15.80
2018-08-18T18:30:41.657Z,12.97
2018-08-18T18:33:10.865Z,11.97
2018-08-18T18:35:39.537Z,12.73
2018-08-18T18:38:08.038Z,14.73
2018-08-18T18:40:42.518Z,12.10
2018-08-18T18:43:10.902Z,14.97
2018-08-18T18:45:39.467Z,17.40
2018-08-18T18:48:11.286Z,14.80
2018-08-18T18:50:39.800Z,16.77
2018-08-18T18:53:08.220Z,18.10
2018-08-18T18:55:52.924Z,22.27
2018-08-18T18:58:21.366Z,16.07
2018-08-18T19:01:27.426Z,16.50
2018-08-18T19:03:55.824Z,16.93
2018-08-18T19:06:24.203Z,13.67
2018-08-18T19:09:00.641Z,16.60
2018-08-18T19:11:29.265Z,13.77
2018-08-18T19:13:58.661Z,17.13
2018-08-18T19:16:27.166Z,16.63
2018-08-18T19:18:55.439Z,14.20
2018-08-18T19:21:30.895Z,15.17
2018-08-18T19:24:00.559Z,14.37
2018-08-18T19:26:45.440Z,21.03
2018-08-18T19:29:13.752Z,16.07
2018-08-18T19:31:42.124Z,15.13
2018-08-18T19:34:13.433Z,16.80
2018-08-18T19:36:55.937Z,15.67
2018-08-18T19:39:26.907Z,13.37
2018-08-18T19:42:10.207Z,16.57
2018-08-18T19:44:42.267Z,17.47
2018-08-18T19:47:10.807Z,19.70
2018-08-18T19:49:45.652Z,16.53
2018-08-18T19:52:15.090Z,18.17
2018-08-18T19:54:49.446Z,16.13
2018-08-18T19:57:24.833Z,14.57
2018-08-18T19:59:54.602Z,20.20
2018-08-18T20:02:22.957Z,16.57
2018-08-18T20:04:51.373Z,16.70
2018-08-18T20:07:19.971Z,14.87
2018-08-18T20:09:48.638Z,13.73
2018-08-18T20:12:17.033Z,17.77
2018-08-18T20:14:45.429Z,15.97
2018-08-18T20:17:13.769Z,18.63
2018-08-18T20:19:42.557Z,15.57
2018-08-18T20:22:15.526Z,18.60
2018-08-18T20:24:43.965Z,22.53
2018-08-18T20:27:12.329Z,20.40
2018-08-18T20:29:41.063Z,18.77
2018-08-18T20:32:09.850Z,17.53
2018-08-18T20:34:38.430Z,22.40
2018-08-18T20:37:06.814Z,15.50
2018-08-18T20:39:35.638Z,17.70
2018-08-18T20:42:04.050Z,30.93
2018-08-18T20:44:32.353Z,15.23
2018-08-18T20:47:00.795Z,18.33
2018-08-18T20:49:29.130Z,20.50
2018-08-18T20:51:57.518Z,21.63
2018-08-18T20:54:25.841Z,18.03
2018-08-18T20:56:54.205Z,21.10
2018-08-18T20:59:22.623Z,17.80
2018-08-18T21:01:50.980Z,22.17
2018-08-18T21:04:19.390Z,21.00
2018-08-18T21:06:47.788Z,18.87
2018-08-18T21:09:31.929Z,19.40
2018-08-18T21:12:00.317Z,19.93
2018-08-18T21:14:29.918Z,22.87
2018-08-18T21:16:58.354Z,19.33
2018-08-18T21:19:27.344Z,17.00
2018-08-18T21:21:56.454Z,17.27
2018-08-18T21:24:24.695Z,17.10
2018-08-18T21:26:53.117Z,22.10
2018-08-18T21:29:23.644Z,20.87
2018-08-18T21:31:52.076Z,19.60
2018-08-18T21:34:20.571Z,17.77
2018-08-18T21:36:48.920Z,16.57
2018-08-18T21:39:18.335Z,16.83
2018-08-18T21:41:47.525Z,19.27
2018-08-18T21:44:16.064Z,21.70
2018-08-18T21:46:44.564Z,20.50
2018-08-18T21:49:13.150Z,18.17
2018-08-18T21:51:41.578Z,18.03
2018-08-18T21:54:10.016Z,15.90
2018-08-18T21:56:41.542Z,15.57
2018-08-18T21:59:11.166Z,17.80
2018-08-18T22:01:39.800Z,21.53
2018-08-18T22:04:09.208Z,16.60
2018-08-18T22:06:37.729Z,19.97
2018-08-18T22:09:33.065Z,20.87
2018-08-18T22:12:01.848Z,16.90
2018-08-18T22:14:30.187Z,18.43
2018-08-18T22:16:58.657Z,18.00
2018-08-18T22:19:28.561Z,20.63
2018-08-18T22:21:57.006Z,18.53
2018-08-18T22:24:25.443Z,18.00
2018-08-18T22:26:53.827Z,18.67
2018-08-18T22:29:25.180Z,16.10
2018-08-18T22:31:53.657Z,18.80
2018-08-18T22:34:22.091Z,19.57
2018-08-18T22:36:54.054Z,19.40
2018-08-18T22:39:22.468Z,19.93
2018-08-18T22:41:50.856Z,24.13
2018-08-18T22:44:19.194Z,19.27
2018-08-18T22:46:47.547Z,24.33
2018-08-18T22:49:15.870Z,21.97
2018-08-18T22:51:44.314Z,18.27
2018-08-18T22:54:12.661Z,17.07
2018-08-18T22:56:41.569Z,18.20
2018-08-18T22:59:09.905Z,18.70
2018-08-18T23:01:38.235Z,17.10
2018-08-18T23:04:27.793Z,20.10
2018-08-18T23:06:56.795Z,19.33
2018-08-18T23:09:25.417Z,18.63
2018-08-18T23:11:54.805Z,19.60
2018-08-18T23:14:23.293Z,22.13
2018-08-18T23:16:52.340Z,17.90
2018-08-18T23:19:20.958Z,18.03
2018-08-18T23:21:49.336Z,21.00
2018-08-18T23:24:28.966Z,20.00
2018-08-18T23:26:57.726Z,19.13
2018-08-18T23:29:26.256Z,20.80
2018-08-18T23:31:55.101Z,18.40
2018-08-18T23:34:23.713Z,17.87
2018-08-18T23:36:52.634Z,19.63
2018-08-18T23:39:20.993Z,19.10
2018-08-18T23:42:00.438Z,17.40
2018-08-18T23:44:29.082Z,18.33
2018-08-18T23:46:57.430Z,15.70
2018-08-18T23:49:25.752Z,16.07
2018-08-18T23:51:54.206Z,15.83
2018-08-18T23:54:23.500Z,19.07
2018-08-18T23:56:52.504Z,14.87
2018-08-18T23:59:22.775Z,18.63
